x

Pensacola - 115nm Ese Of Pensacola, Fl (42039) Wave Buoy

8:50pm - Thu 29th Jan 2015 All times are CST. -6 hours from GMT.

  • Sig Wave height 2.0ft
  • Swell Direction
  • Peak Period 6s
  • Average Period 4s
  • Wind
    11mph, 13mph gusts
  • Sea Temp 70°f
  • Air Temp 66°f
  • Sea Pressure 1024.5mb
  • Pensacola - 115nm Ese Of Pensacola, Fl
  • Pensacola - 115nm Ese Of Pensacola, Fl

More Historic Weather Station data

Upgrade to MSW Pro to gain access to the past 30 days of data for over 8000 Wavebouys and Weather Stations around the globe.

Join Pro

Comparision Forecast

View Surf forecast
   
Thu 01/29 8:50pm 2ft 6s 4s 11 13 mph 1024.5mb 70f 66f
7:50pm 2.5ft 5s 4s 9 13 mph 1024.5mb 70f 65f
6:50pm 2.5ft 5s 4s 9 11 mph 1024.3mb 70f 65f
5:50pm 2.5ft 5s 4s 7 11 mph 1024.7mb 70f 65f
4:50pm 2.5ft 5s 4s 4 7 mph 1024.8mb 70f 65f
3:50pm 2.5ft 5s  -  4 9 mph 1024.6mb 70f 65f
2:50pm 2.5ft 4s 4s 7 9 mph 1024.4mb 70f 65f
1:50pm 2.5ft 5s 4s 9 13 mph 1024.2mb 70f 64f
11:50am 2.5ft 5s 4s 13 18 mph 1025.2mb 70f 63f
10:50am 2.5ft 4s 4s 13 16 mph 1026.3mb 70f 63f
9:50am 2.5ft 4s 4s 13 18 mph 1027.2mb 70f 63f
8:50am 2.5ft 4s 4s 11 16 mph 1027.1mb 70f 63f
7:50am 2.5ft 4s 4s 11 13 mph 1026.4mb 69f 62f
6:50am 2.5ft 5s 4s 13 18 mph 1026mb 69f 62f
5:50am 2.5ft 5s 4s 13 16 mph 1025.4mb 69f 61f
4:50am 2.5ft 5s 4s 11 13 mph 1025.1mb 69f 61f
3:50am 3ft 5s 4s 16 20 mph 1024.6mb 69f 61f
2:50am 3ft 5s 4s 20 22 mph 1023.8mb 70f 60f
1:50am 2.5ft 4s 4s 18 22 mph 1023.8mb 70f 60f
12:50am 2ft 4s 3s 18 22 mph 1024.1mb 70f 60f
Wed 01/28 11:50pm 1.6ft 4s 3s 16 18 mph 1024.5mb 70f 59f
10:50pm 1.6ft 4s 4s 13 16 mph 1025.5mb 70f 58f
9:50pm 1.6ft 5s 4s 13 16 mph 1025.5mb 70f 58f
8:50pm 1.6ft 4s 4s 11 13 mph 1025.8mb 70f 58f
7:50pm 1.6ft 4s 4s 11 16 mph 1025.4mb 70f 58f
6:50pm 2ft 4s 4s 9 13 mph 1024.6mb 70f 58f
5:50pm 2ft 4s 4s 9 13 mph 1024.2mb 70f 58f
4:50pm 2.5ft 4s 4s 9 11 mph 1024.3mb 70f 58f
3:50pm 2.5ft 4s 4s 9 13 mph 1023.7mb 70f 58f
2:50pm 2.5ft 4s 4s 11 13 mph 1023.7mb 70f 58f
1:50pm 2.5ft 5s 4s 9 11 mph 1023.8mb 70f 58f
12:50pm 2.5ft 5s 4s 9 11 mph 1023.9mb 70f 58f
11:50am 3ft 5s 4s 11 13 mph 1024.3mb 70f 58f
10:50am 3ft 5s 4s 13 16 mph 1025.3mb 70f 58f
9:50am 3ft 5s 4s 11 16 mph 1025.4mb 70f 59f
8:50am 3ft 5s 4s 13 18 mph 1024.8mb 70f 59f
7:50am 3.5ft 5s 4s 13 18 mph 1024mb 70f 60f
6:50am 3.5ft 5s 4s 13 18 mph 1023.1mb 70f 60f
5:50am 3.5ft 5s 4s 16 20 mph 1022.2mb 70f 60f
4:50am 3.5ft 5s 4s 16 20 mph 1021.4mb 70f 61f
3:50am 3.5ft 5s 4s 16 20 mph 1020.9mb 70f 62f
2:50am 4ft 6s 4s 16 20 mph 1020.6mb 70f 63f
1:50am 3.5ft 6s 4s 18 20 mph 1020.2mb 70f 64f
12:50am 4.5ft 6s 4s 18 20 mph 1019.8mb 70f 65f
Tue 01/27 11:50pm 4.5ft 6s 4s 18 22 mph 1019.8mb 70f 66f
10:50pm 4.5ft 6s 5s 18 22 mph 1019.7mb 70f 66f
9:50pm 4.5ft 6s 4s 20 22 mph 1019.3mb 70f 66f
8:50pm 4.5ft 6s 5s 20 25 mph 1019.1mb 70f 65f
7:50pm 4.5ft 7s 5s 20 25 mph 1018.4mb 70f 65f
6:50pm 4.5ft 7s 5s 20 25 mph 1017.8mb 70f 64f
5:50pm 4.5ft 7s 5s 20 25 mph 1017.4mb 70f 64f
4:50pm 4.5ft 7s 5s 18 22 mph 1016.9mb 70f 64f
3:50pm 5ft 6s 5s 20 22 mph 1016.7mb 70f 64f
2:50pm 5.5ft 6s 5s 18 25 mph 1016.4mb 70f 64f
1:50pm 5ft 7s 5s 18 22 mph 1016.3mb 70f 64f
12:50pm 5.5ft 7s 5s 20 25 mph 1016.8mb 70f 64f
11:50am 5ft 6s 5s 22 27 mph 1017.3mb 70f 65f
10:50am 5ft 6s 5s 22 27 mph 1018.1mb 70f 66f
9:50am 5ft 6s 5s 20 22 mph 1018.3mb 70f 65f
8:50am 5ft 6s 5s 20 27 mph 1018.1mb 70f 65f
7:50am 5ft 5s 5s 20 25 mph 1018.1mb 70f 64f
6:50am 5ft 5s 5s 20 27 mph 1017.8mb 70f 63f
5:50am 4.5ft 6s 4s 20 25 mph 1017.4mb 70f 63f
4:50am 4.5ft 6s 5s 22 25 mph 1016.9mb 70f 63f
3:50am 4.5ft 6s 5s 20 25 mph 1017.1mb 70f 63f
2:50am 4.5ft 6s 5s 18 20 mph 1017.4mb 70f 62f
1:50am 5ft 7s 5s 13 18 mph 1017.5mb 70f 61f
12:50am 6ft 7s 5s 16 18 mph 1017.3mb 70f 61f
Mon 01/26 11:50pm 6ft 7s 5s 13 18 mph 1017.1mb 70f 61f
10:50pm 6ft 6s 5s 13 18 mph 1017.3mb 70f 60f
9:50pm 6.5ft 6s 5s 18 25 mph 1017.7mb 70f 61f
8:50pm 7ft 7s 5s 20 25 mph 1017.3mb 70f 60f
7:50pm 6.5ft 8s 5s 20 27 mph 1017.2mb 70f 61f
6:50pm 6.5ft 8s 5s 22 27 mph 1016.6mb 70f 59f
5:50pm 7ft 8s 6s 20 27 mph 1016mb 70f 58f
4:50pm 7ft 9s 6s 22 27 mph 1015.4mb 70f 58f
3:50pm 7ft 8s 6s 22 27 mph 1014.8mb 70f 58f
2:50pm 8.5ft 8s 6s 22 27 mph 1014.6mb 70f 58f
1:50pm 9ft 9s 6s 22 27 mph 1014.6mb 70f 58f
12:50pm 9ft 8s 6s 22 27 mph 1015.1mb 70f 57f
11:50am 10ft 8s 6s 27 34 mph 1016mb 70f 58f
10:50am 8.5ft 8s 6s 27 31 mph 1016.4mb 70f 58f
9:50am 9ft 8s 6s 27 31 mph 1016.3mb 70f 59f
8:50am 10ft 8s 6s 25 29 mph 1015.6mb 70f 60f
7:50am 9.5ft 8s 6s 27 34 mph 1015.1mb 70f 61f
6:50am 11ft 8s 7s 25 29 mph 1014.4mb 70f 62f
5:50am 12ft 8s 7s 25 31 mph 1013.5mb 70f 63f
4:50am 12ft 8s 7s 29 34 mph 1013mb 70f 64f
3:50am 11.5ft 8s 7s 29 38 mph 1012.4mb 70f 65f